Time;durP1;ratioP1;P1;durP2;ratioP2;P2;SDS_P1;SDS_P2;PMS_P1;PMS_P2;Temp;Humidity;BMP_temperature;BMP_pressure;BME280_temperature;BME280_humidity;BME280_pressure;Samples;Min_cycle;Max_cycle;Signal;HPM_P1;HPM_P2
2023/12/02 00:00:05;;;;;;;4.22;1.75;;;12.00;50.10;;;;;;345436;28;1091;-56
2023/12/02 00:00:16;;;;;;;4.45;1.73;;;12.00;50.00;;;;;;345278;28;1229;-56
2023/12/02 00:00:26;;;;;;;4.28;1.75;;;12.00;50.00;;;;;;345450;28;1512;-55
2023/12/02 00:00:37;;;;;;;5.47;1.80;;;12.00;50.00;;;;;;345455;28;1416;-55
2023/12/02 00:00:48;;;;;;;5.55;1.90;;;12.00;50.00;;;;;;345430;28;1103;-56
2023/12/02 00:00:59;;;;;;;5.90;2.10;;;12.00;49.90;;;;;;345535;28;1940;-56
2023/12/02 00:01:10;;;;;;;4.27;2.00;;;12.00;49.90;;;;;;345532;28;1016;-57
2023/12/02 00:01:21;;;;;;;3.90;1.90;;;12.00;49.90;;;;;;345557;28;841;-56
2023/12/02 00:01:32;;;;;;;3.00;1.60;;;12.00;49.90;;;;;;345448;28;1207;-56
2023/12/02 00:01:43;;;;;;;2.42;1.30;;;12.00;50.00;;;;;;345553;28;1027;-56
2023/12/02 00:01:54;;;;;;;2.22;1.25;;;12.00;50.30;;;;;;345425;28;1022;-55
2023/12/02 00:02:05;;;;;;;2.30;1.25;;;12.00;50.30;;;;;;345512;28;878;-58
2023/12/02 00:02:15;;;;;;;3.00;1.45;;;12.00;50.30;;;;;;345503;28;920;-55
2023/12/02 00:02:26;;;;;;;4.68;1.85;;;12.00;50.30;;;;;;345496;28;913;-55
2023/12/02 00:02:37;;;;;;;4.43;1.90;;;12.00;50.30;;;;;;345568;28;1099;-56
2023/12/02 00:02:48;;;;;;;3.87;1.80;;;12.00;50.20;;;;;;345529;28;806;-55
2023/12/02 00:02:58;;;;;;;2.67;1.58;;;12.00;50.10;;;;;;345450;28;1058;-55
2023/12/02 00:03:09;;;;;;;3.92;1.60;;;12.00;50.00;;;;;;345447;28;1167;-55
2023/12/02 00:03:20;;;;;;;4.25;1.70;;;12.00;50.10;;;;;;345497;28;1044;-55
2023/12/02 00:03:31;;;;;;;3.83;1.60;;;12.00;50.20;;;;;;345552;28;968;-54
2023/12/02 00:03:41;;;;;;;3.80;1.65;;;12.00;50.30;;;;;;345451;28;912;-56
2023/12/02 00:03:52;;;;;;;4.30;1.55;;;12.00;50.20;;;;;;345545;28;952;-56
2023/12/02 00:04:03;;;;;;;4.15;1.50;;;12.00;50.10;;;;;;345533;28;968;-55
2023/12/02 00:04:14;;;;;;;3.90;1.40;;;12.00;50.20;;;;;;345400;28;1507;-55
2023/12/02 00:04:25;;;;;;;3.60;1.42;;;12.00;50.20;;;;;;345489;28;1283;-55
2023/12/02 00:04:35;;;;;;;3.23;1.50;;;12.00;50.30;;;;;;345483;28;1050;-56
2023/12/02 00:04:47;;;;;;;3.35;1.67;;;12.00;50.50;;;;;;345542;28;984;-54
2023/12/02 00:04:57;;;;;;;4.05;1.83;;;12.00;50.70;;;;;;345435;28;1009;-56
2023/12/02 00:05:09;;;;;;;4.63;1.90;;;12.00;50.70;;;;;;345471;28;1151;-56
2023/12/02 00:05:19;;;;;;;4.66;1.80;;;12.00;50.50;;;;;;345518;28;1015;-57
2023/12/02 00:05:30;;;;;;;4.77;1.90;;;12.00;50.40;;;;;;345486;28;1045;-56
2023/12/02 00:05:41;;;;;;;4.97;1.90;;;12.00;50.30;;;;;;345524;28;868;-55
2023/12/02 00:05:52;;;;;;;4.57;1.98;;;11.90;50.60;;;;;;345491;28;1180;-55
2023/12/02 00:06:03;;;;;;;3.15;1.65;;;12.00;50.80;;;;;;345504;28;1095;-56
2023/12/02 00:06:14;;;;;;;3.13;1.60;;;11.90;50.70;;;;;;345533;28;865;-55
2023/12/02 00:06:25;;;;;;;4.23;1.87;;;11.90;50.80;;;;;;345478;28;833;-55
2023/12/02 00:06:36;;;;;;;4.40;2.00;;;11.90;51.10;;;;;;345393;28;1111;-56
2023/12/02 00:06:46;;;;;;;4.15;1.92;;;11.90;51.30;;;;;;345478;28;1873;-55
2023/12/02 00:06:57;;;;;;;3.63;1.80;;;11.80;51.30;;;;;;345465;28;1079;-55
2023/12/02 00:07:09;;;;;;;3.80;1.80;;;11.80;51.30;;;;;;345460;28;1245;-55
2023/12/02 00:07:20;;;;;;;3.72;1.80;;;11.80;51.10;;;;;;345502;28;1059;-56
2023/12/02 00:07:30;;;;;;;3.38;1.77;;;11.90;51.20;;;;;;345519;28;928;-56
2023/12/02 00:07:41;;;;;;;3.45;1.75;;;11.80;51.60;;;;;;345520;28;1174;-55
2023/12/02 00:07:52;;;;;;;3.65;1.80;;;11.80;51.70;;;;;;345384;28;1634;-56
2023/12/02 00:08:03;;;;;;;4.65;1.88;;;11.80;51.40;;;;;;345510;28;1043;-55
2023/12/02 00:08:14;;;;;;;4.05;1.73;;;11.90;51.20;;;;;;345562;28;920;-56
2023/12/02 00:08:24;;;;;;;4.07;1.83;;;11.80;51.10;;;;;;345420;28;899;-56
2023/12/02 00:08:35;;;;;;;3.50;1.80;;;11.80;51.10;;;;;;345508;28;1097;-55
2023/12/02 00:08:46;;;;;;;3.42;1.65;;;11.80;51.20;;;;;;345513;28;964;-56
2023/12/02 00:08:57;;;;;;;3.05;1.60;;;11.90;51.20;;;;;;345465;28;998;-56
2023/12/02 00:09:08;;;;;;;2.95;1.70;;;11.80;51.20;;;;;;345432;28;1084;-57
2023/12/02 00:09:19;;;;;;;3.20;1.77;;;11.80;51.10;;;;;;345562;28;916;-55
2023/12/02 00:09:29;;;;;;;3.33;1.70;;;11.80;51.10;;;;;;345418;28;911;-56
2023/12/02 00:09:40;;;;;;;3.20;1.80;;;11.80;51.10;;;;;;345507;28;1099;-57
2023/12/02 00:09:51;;;;;;;2.93;1.70;;;11.90;51.20;;;;;;345463;28;957;-57
2023/12/02 00:10:02;;;;;;;2.95;1.52;;;11.80;51.50;;;;;;345446;28;2783;-55
2023/12/02 00:10:13;;;;;;;2.90;1.33;;;11.80;51.60;;;;;;345501;28;932;-55
2023/12/02 00:10:24;;;;;;;3.47;1.50;;;11.80;51.50;;;;;;345506;28;1021;-56
2023/12/02 00:10:35;;;;;;;3.58;1.60;;;11.80;51.30;;;;;;345408;28;1039;-55
2023/12/02 00:10:45;;;;;;;3.90;1.80;;;11.90;51.10;;;;;;345545;28;893;-55
2023/12/02 00:10:56;;;;;;;3.40;1.70;;;11.90;50.90;;;;;;345479;28;1139;-54
2023/12/02 00:11:07;;;;;;;4.00;1.73;;;11.80;50.90;;;;;;345417;28;1019;-55
2023/12/02 00:11:18;;;;;;;4.63;1.60;;;11.80;51.10;;;;;;345516;28;980;-54
2023/12/02 00:11:28;;;;;;;4.13;1.70;;;11.80;51.10;;;;;;345477;28;1024;-55
2023/12/02 00:11:39;;;;;;;3.95;1.75;;;11.80;50.80;;;;;;345398;28;1036;-55
2023/12/02 00:11:50;;;;;;;3.65;1.80;;;11.80;51.20;;;;;;345451;28;1095;-56
2023/12/02 00:12:01;;;;;;;3.58;1.70;;;11.70;51.70;;;;;;345545;28;976;-55
2023/12/02 00:12:12;;;;;;;3.50;1.73;;;11.70;52.00;;;;;;345389;28;1907;-55
2023/12/02 00:12:23;;;;;;;4.03;1.75;;;11.70;51.70;;;;;;345495;28;1004;-55
2023/12/02 00:12:33;;;;;;;4.47;1.95;;;11.70;51.70;;;;;;345511;28;1016;-58
2023/12/02 00:12:44;;;;;;;4.67;1.97;;;11.70;51.70;;;;;;345408;28;1048;-56
2023/12/02 00:12:55;;;;;;;4.68;2.10;;;11.70;51.60;;;;;;345500;28;984;-55
2023/12/02 00:13:06;;;;;;;4.72;1.77;;;11.70;51.50;;;;;;345511;28;814;-56
2023/12/02 00:13:16;;;;;;;4.90;1.90;;;11.70;51.50;;;;;;345411;28;1162;-55
2023/12/02 00:13:27;;;;;;;4.73;1.80;;;11.70;51.60;;;;;;345422;28;1031;-57
2023/12/02 00:13:38;;;;;;;3.90;1.88;;;11.80;51.50;;;;;;345521;28;968;-54
2023/12/02 00:13:49;;;;;;;3.00;1.52;;;11.70;51.40;;;;;;345486;28;889;-55
2023/12/02 00:13:59;;;;;;;3.03;1.65;;;11.70;51.30;;;;;;345476;28;1095;-55
2023/12/02 00:14:10;;;;;;;4.00;1.80;;;11.80;51.20;;;;;;345398;28;1041;-57
2023/12/02 00:14:21;;;;;;;5.03;1.97;;;11.80;51.10;;;;;;345431;28;1032;-56
2023/12/02 00:14:32;;;;;;;4.57;1.90;;;11.80;51.10;;;;;;345685;28;1051;-55
2023/12/02 00:14:43;;;;;;;3.70;1.70;;;11.80;51.30;;;;;;345794;28;1227;-55
2023/12/02 00:14:54;;;;;;;3.40;1.67;;;11.80;51.20;;;;;;345878;28;908;-57
2023/12/02 00:15:06;;;;;;;5.95;1.85;;;11.80;51.10;;;;;;345939;28;1190;-56
2023/12/02 00:15:17;;;;;;;6.40;1.98;;;11.80;51.00;;;;;;345981;28;1031;-56
2023/12/02 00:15:28;;;;;;;5.90;1.95;;;11.80;51.00;;;;;;345959;28;1047;-55
2023/12/02 00:15:39;;;;;;;4.80;1.90;;;11.80;51.20;;;;;;345856;28;1031;-56
2023/12/02 00:15:50;;;;;;;4.13;1.77;;;11.80;51.30;;;;;;345978;28;905;-56
2023/12/02 00:16:01;;;;;;;4.55;1.83;;;11.80;51.40;;;;;;346008;28;845;-57
2023/12/02 00:16:12;;;;;;;4.65;1.77;;;11.80;51.50;;;;;;345971;28;972;-55
2023/12/02 00:16:23;;;;;;;3.55;1.70;;;11.80;51.50;;;;;;345865;28;1036;-55
2023/12/02 00:16:33;;;;;;;3.83;1.83;;;11.80;51.50;;;;;;345978;28;893;-56
2023/12/02 00:16:44;;;;;;;5.00;2.03;;;11.80;51.50;;;;;;346001;28;837;-56
2023/12/02 00:16:55;;;;;;;4.88;2.10;;;11.80;51.50;;;;;;345941;28;1039;-58
2023/12/02 00:17:06;;;;;;;3.97;1.88;;;11.80;51.60;;;;;;345835;28;976;-54
2023/12/02 00:17:17;;;;;;;3.00;1.67;;;11.80;51.30;;;;;;345973;28;972;-55
2023/12/02 00:17:28;;;;;;;3.60;1.85;;;11.80;51.50;;;;;;345947;28;1131;-55
2023/12/02 00:17:38;;;;;;;4.05;1.92;;;11.80;51.60;;;;;;346002;28;1015;-56
2023/12/02 00:17:51;;;;;;;3.97;1.80;;;11.80;51.70;;;;;;345917;28;1007;-56
2023/12/02 00:18:01;;;;;;;3.80;1.70;;;11.80;51.60;;;;;;345999;28;1032;-56
2023/12/02 00:18:12;;;;;;;4.45;1.83;;;11.80;51.70;;;;;;345895;28;842;-55
2023/12/02 00:18:23;;;;;;;3.80;1.95;;;11.80;51.90;;;;;;346002;28;866;-56
2023/12/02 00:18:34;;;;;;;4.13;2.20;;;11.80;52.20;;;;;;345962;28;1574;-55
2023/12/02 00:18:44;;;;;;;3.17;1.92;;;11.80;52.00;;;;;;345879;28;1055;-55
2023/12/02 00:18:55;;;;;;;3.42;1.92;;;11.80;51.70;;;;;;345934;28;846;-57
2023/12/02 00:19:06;;;;;;;3.55;1.83;;;11.80;51.60;;;;;;345956;28;1143;-56
2023/12/02 00:19:17;;;;;;;3.80;1.80;;;11.80;51.50;;;;;;345956;28;862;-56
2023/12/02 00:19:27;;;;;;;3.53;1.77;;;11.70;51.40;;;;;;345850;28;1878;-55
2023/12/02 00:19:38;;;;;;;3.13;1.70;;;11.70;51.60;;;;;;345842;28;1227;-55
2023/12/02 00:19:49;;;;;;;3.08;1.70;;;11.70;51.70;;;;;;345979;28;884;-57
2023/12/02 00:20:00;;;;;;;3.22;1.65;;;11.70;51.70;;;;;;345931;28;1329;-56
2023/12/02 00:20:11;;;;;;;3.28;1.70;;;11.70;51.50;;;;;;345930;28;932;-54
2023/12/02 00:20:22;;;;;;;3.88;1.95;;;11.70;51.20;;;;;;345941;28;1349;-55
2023/12/02 00:20:33;;;;;;;5.00;1.80;;;11.70;51.10;;;;;;345851;28;1173;-55
2023/12/02 00:20:43;;;;;;;5.78;1.88;;;11.70;51.00;;;;;;345949;28;975;-55
2023/12/02 00:20:54;;;;;;;5.63;1.80;;;11.70;51.00;;;;;;345941;28;871;-56
2023/12/02 00:21:05;;;;;;;4.97;1.90;;;11.70;51.10;;;;;;346025;28;872;-56
2023/12/02 00:21:16;;;;;;;5.47;1.88;;;11.70;51.70;;;;;;346003;28;975;-56
2023/12/02 00:21:27;;;;;;;5.50;1.80;;;11.70;51.70;;;;;;345888;28;912;-55
2023/12/02 00:21:37;;;;;;;4.28;1.73;;;11.70;51.80;;;;;;345887;28;1127;-56
2023/12/02 00:21:49;;;;;;;4.35;1.95;;;11.70;52.10;;;;;;345918;28;1115;-57
2023/12/02 00:21:59;;;;;;;3.75;2.10;;;11.70;52.00;;;;;;345978;28;1090;-56
2023/12/02 00:22:10;;;;;;;3.55;2.10;;;11.70;51.70;;;;;;345991;28;995;-55
2023/12/02 00:22:21;;;;;;;3.38;2.00;;;11.80;51.60;;;;;;345901;28;1071;-58
2023/12/02 00:22:32;;;;;;;3.35;1.92;;;11.70;51.60;;;;;;345980;28;829;-55
2023/12/02 00:22:43;;;;;;;3.90;1.90;;;11.80;51.70;;;;;;345933;28;996;-56
2023/12/02 00:22:53;;;;;;;3.83;1.90;;;11.80;51.60;;;;;;345948;28;817;-56
2023/12/02 00:23:04;;;;;;;3.80;1.90;;;11.80;51.50;;;;;;345995;28;1046;-56
2023/12/02 00:23:15;;;;;;;3.95;2.15;;;11.80;51.40;;;;;;345831;28;1158;-57
2023/12/02 00:23:26;;;;;;;4.53;2.33;;;11.80;51.50;;;;;;346000;28;829;-56
2023/12/02 00:23:37;;;;;;;5.22;2.67;;;11.80;51.40;;;;;;345893;28;1074;-55
2023/12/02 00:23:47;;;;;;;4.13;2.50;;;11.80;51.30;;;;;;345959;28;1102;-55
2023/12/02 00:23:58;;;;;;;4.25;2.53;;;11.80;51.50;;;;;;345968;28;1015;-57
2023/12/02 00:24:09;;;;;;;4.88;2.33;;;11.80;51.70;;;;;;345862;28;1002;-55
2023/12/02 00:24:19;;;;;;;5.43;2.40;;;11.80;51.50;;;;;;345941;28;817;-56
2023/12/02 00:24:30;;;;;;;4.90;2.42;;;11.80;51.30;;;;;;345919;28;865;-56
2023/12/02 00:24:41;;;;;;;5.00;2.50;;;11.80;51.30;;;;;;345990;28;865;-56
2023/12/02 00:24:52;;;;;;;4.90;2.40;;;11.80;51.10;;;;;;345908;28;1921;-56
2023/12/02 00:25:03;;;;;;;4.63;2.40;;;11.80;51.10;;;;;;345930;28;972;-55
2023/12/02 00:25:14;;;;;;;4.75;2.45;;;11.80;51.00;;;;;;345930;28;2081;-58
2023/12/02 00:25:24;;;;;;;5.07;2.40;;;11.80;51.00;;;;;;345949;28;1051;-56
2023/12/02 00:25:35;;;;;;;5.03;2.40;;;11.80;51.00;;;;;;345948;28;1054;-56
2023/12/02 00:25:46;;;;;;;4.43;2.35;;;11.80;51.00;;;;;;345930;28;818;-56
2023/12/02 00:25:58;;;;;;;4.33;2.40;;;11.80;51.00;;;;;;345842;28;1019;-56
2023/12/02 00:26:10;;;;;;;4.75;2.58;;;11.80;51.10;;;;;;345980;28;919;-55
2023/12/02 00:26:20;;;;;;;4.35;2.60;;;11.80;51.10;;;;;;346002;28;833;-56
2023/12/02 00:26:31;;;;;;;4.82;2.50;;;11.80;51.10;;;;;;345911;28;1328;-56
2023/12/02 00:26:42;;;;;;;3.97;2.28;;;11.80;51.10;;;;;;345966;28;861;-56
2023/12/02 00:26:53;;;;;;;4.63;2.10;;;11.80;51.10;;;;;;345895;28;1019;-56
2023/12/02 00:27:04;;;;;;;4.35;2.08;;;11.80;51.10;;;;;;345855;28;1039;-56
2023/12/02 00:27:16;;;;;;;4.25;2.05;;;11.80;51.10;;;;;;345966;28;833;-56
2023/12/02 00:27:27;;;;;;;3.30;1.90;;;11.80;51.10;;;;;;345941;28;988;-56
2023/12/02 00:27:38;;;;;;;4.03;1.90;;;11.80;51.10;;;;;;345884;28;1236;-56
2023/12/02 00:27:49;;;;;;;4.03;1.70;;;11.80;51.10;;;;;;345808;28;1016;-55
2023/12/02 00:28:00;;;;;;;4.63;1.75;;;11.80;51.10;;;;;;345968;28;1036;-56
2023/12/02 00:28:11;;;;;;;3.63;1.55;;;11.80;51.00;;;;;;345863;28;1019;-55
2023/12/02 00:28:21;;;;;;;3.58;1.80;;;11.80;51.00;;;;;;345816;28;1496;-60
2023/12/02 00:28:32;;;;;;;4.47;1.85;;;11.80;51.00;;;;;;345959;28;953;-55
2023/12/02 00:28:43;;;;;;;4.63;2.10;;;11.80;50.90;;;;;;345872;28;884;-55
2023/12/02 00:28:54;;;;;;;4.55;2.05;;;11.80;50.80;;;;;;345886;28;1482;-55
2023/12/02 00:29:04;;;;;;;3.78;1.88;;;11.90;50.80;;;;;;345928;28;1103;-55
2023/12/02 00:29:15;;;;;;;4.28;1.75;;;11.80;50.70;;;;;;345798;28;1122;-56
2023/12/02 00:29:26;;;;;;;4.50;1.70;;;11.80;50.90;;;;;;345961;28;972;-56
2023/12/02 00:29:37;;;;;;;4.73;1.73;;;11.80;51.00;;;;;;345930;28;1086;-56
2023/12/02 00:29:47;;;;;;;4.30;1.70;;;11.80;51.10;;;;;;345929;28;821;-55
2023/12/02 00:29:58;;;;;;;4.38;1.90;;;11.80;51.10;;;;;;345813;28;1075;-54
2023/12/02 00:30:09;;;;;;;4.32;1.85;;;11.80;51.20;;;;;;345961;28;1082;-56
2023/12/02 00:30:20;;;;;;;4.75;1.88;;;11.80;51.70;;;;;;345984;28;877;-55
2023/12/02 00:30:31;;;;;;;4.32;1.92;;;11.80;51.50;;;;;;345834;28;1098;-57
2023/12/02 00:30:42;;;;;;;4.32;2.10;;;11.80;51.40;;;;;;345894;28;1076;-56
2023/12/02 00:30:52;;;;;;;3.70;2.00;;;11.80;51.40;;;;;;345988;28;857;-57
2023/12/02 00:31:04;;;;;;;3.67;2.00;;;11.80;51.30;;;;;;345932;28;1095;-55
2023/12/02 00:31:14;;;;;;;4.45;2.20;;;11.80;51.30;;;;;;345856;28;1880;-56
2023/12/02 00:31:25;;;;;;;5.22;2.20;;;11.80;51.20;;;;;;345953;28;892;-55
2023/12/02 00:31:36;;;;;;;5.13;2.15;;;11.80;51.00;;;;;;345982;28;837;-55
2023/12/02 00:31:47;;;;;;;4.07;2.30;;;11.80;50.90;;;;;;345898;28;991;-56
2023/12/02 00:31:57;;;;;;;4.70;2.40;;;11.80;50.90;;;;;;345964;28;849;-55
2023/12/02 00:32:08;;;;;;;5.80;2.35;;;11.80;51.00;;;;;;345747;28;1903;-57
2023/12/02 00:32:19;;;;;;;6.60;2.30;;;11.90;50.90;;;;;;345937;28;979;-55
2023/12/02 00:32:30;;;;;;;6.38;2.40;;;11.80;51.10;;;;;;345903;28;1033;-55
2023/12/02 00:32:41;;;;;;;4.55;2.17;;;11.80;51.10;;;;;;346015;28;849;-55
2023/12/02 00:32:51;;;;;;;4.47;2.30;;;11.90;51.10;;;;;;345908;28;1546;-56
2023/12/02 00:33:02;;;;;;;5.22;2.55;;;11.90;51.10;;;;;;345823;28;1079;-55
2023/12/02 00:33:13;;;;;;;6.17;2.70;;;11.80;51.10;;;;;;345975;28;897;-54
2023/12/02 00:33:24;;;;;;;5.68;2.70;;;11.80;51.20;;;;;;346007;28;872;-55
2023/12/02 00:33:34;;;;;;;5.10;2.40;;;11.80;51.20;;;;;;345990;28;1095;-55
2023/12/02 00:33:45;;;;;;;4.50;2.40;;;11.80;51.20;;;;;;345913;28;1095;-57
2023/12/02 00:33:57;;;;;;;4.70;2.35;;;11.80;51.30;;;;;;345986;28;951;-56
2023/12/02 00:34:08;;;;;;;5.55;2.47;;;11.80;51.50;;;;;;345944;28;1969;-55
2023/12/02 00:34:18;;;;;;;6.57;2.40;;;11.90;51.50;;;;;;345951;28;1070;-56
2023/12/02 00:34:29;;;;;;;5.95;2.30;;;11.90;51.40;;;;;;345826;28;1052;-56
2023/12/02 00:34:40;;;;;;;5.22;2.25;;;11.80;51.30;;;;;;345923;28;868;-55
2023/12/02 00:34:50;;;;;;;5.28;2.22;;;11.80;51.10;;;;;;345933;28;1028;-54
2023/12/02 00:35:01;;;;;;;5.43;2.30;;;11.90;51.10;;;;;;345947;28;1590;-55
2023/12/02 00:35:12;;;;;;;5.60;2.20;;;11.80;51.10;;;;;;345797;28;1628;-56
2023/12/02 00:35:23;;;;;;;4.25;2.10;;;11.80;51.00;;;;;;345946;28;904;-55
2023/12/02 00:35:33;;;;;;;3.63;1.90;;;11.80;51.00;;;;;;345800;28;1055;-55
2023/12/02 00:35:44;;;;;;;3.63;1.80;;;11.80;51.00;;;;;;345909;28;865;-55
2023/12/02 00:35:55;;;;;;;3.83;1.87;;;11.80;51.10;;;;;;345905;28;959;-55
2023/12/02 00:36:06;;;;;;;3.90;1.90;;;11.80;51.10;;;;;;346012;28;880;-55
2023/12/02 00:36:17;;;;;;;4.10;2.03;;;11.80;51.10;;;;;;345943;28;849;-54
2023/12/02 00:36:28;;;;;;;3.87;2.00;;;11.80;51.00;;;;;;345905;28;1020;-54
2023/12/02 00:36:38;;;;;;;4.82;2.05;;;11.80;50.90;;;;;;345831;28;1087;-56
2023/12/02 00:36:49;;;;;;;4.57;1.90;;;11.80;50.90;;;;;;345955;28;1094;-55
2023/12/02 00:37:00;;;;;;;4.32;1.80;;;11.80;50.90;;;;;;345982;28;879;-55
2023/12/02 00:37:11;;;;;;;3.42;1.65;;;11.80;50.90;;;;;;345885;28;1035;-55
2023/12/02 00:37:22;;;;;;;3.50;1.77;;;11.80;50.90;;;;;;345892;28;908;-55
2023/12/02 00:37:33;;;;;;;3.45;1.80;;;11.80;51.00;;;;;;345979;28;1015;-55
2023/12/02 00:37:44;;;;;;;4.05;2.20;;;11.80;51.20;;;;;;345942;28;1237;-57
2023/12/02 00:37:55;;;;;;;4.97;2.38;;;11.80;51.20;;;;;;345865;28;2666;-54
2023/12/02 00:38:05;;;;;;;5.53;2.53;;;11.80;51.20;;;;;;345879;28;1632;-55
2023/12/02 00:38:16;;;;;;;4.53;2.15;;;11.80;51.10;;;;;;345936;28;1340;-55
2023/12/02 00:38:27;;;;;;;4.05;2.22;;;11.90;51.10;;;;;;345905;28;1311;-56
2023/12/02 00:38:38;;;;;;;3.95;2.20;;;11.80;51.10;;;;;;345838;28;888;-55
2023/12/02 00:38:49;;;;;;;4.50;2.25;;;11.90;51.10;;;;;;345880;28;1565;-54
2023/12/02 00:38:59;;;;;;;4.88;2.20;;;11.80;51.20;;;;;;345975;28;888;-55
2023/12/02 00:39:10;;;;;;;4.63;2.20;;;11.80;51.30;;;;;;345847;28;889;-55
2023/12/02 00:39:21;;;;;;;4.18;2.17;;;11.80;51.30;;;;;;345927;28;1940;-55
2023/12/02 00:39:32;;;;;;;5.03;2.30;;;11.80;51.30;;;;;;345925;28;980;-55
2023/12/02 00:39:42;;;;;;;6.00;2.47;;;11.80;51.30;;;;;;345832;28;1060;-55
2023/12/02 00:39:53;;;;;;;6.90;2.50;;;11.80;51.30;;;;;;345926;28;926;-54
2023/12/02 00:40:05;;;;;;;6.30;2.43;;;11.80;51.50;;;;;;345999;28;825;-55
2023/12/02 00:40:16;;;;;;;5.32;2.25;;;11.90;51.60;;;;;;345879;28;1506;-55
2023/12/02 00:40:26;;;;;;;4.25;2.20;;;11.80;51.50;;;;;;345872;28;1477;-55
2023/12/02 00:40:37;;;;;;;4.10;2.10;;;11.80;51.40;;;;;;345869;28;1055;-54
2023/12/02 00:40:48;;;;;;;4.15;2.17;;;11.80;51.40;;;;;;345917;28;1002;-56
2023/12/02 00:40:59;;;;;;;4.25;2.22;;;11.80;51.50;;;;;;345939;28;841;-56
2023/12/02 00:41:10;;;;;;;5.47;2.37;;;11.90;51.40;;;;;;345982;28;860;-55
2023/12/02 00:41:21;;;;;;;4.88;2.17;;;11.90;51.60;;;;;;345920;28;981;-55
2023/12/02 00:41:32;;;;;;;4.82;2.15;;;11.80;52.10;;;;;;345915;28;1805;-55
2023/12/02 00:41:42;;;;;;;3.70;2.00;;;11.80;52.00;;;;;;345915;28;960;-56
2023/12/02 00:41:53;;;;;;;4.13;2.10;;;11.80;52.40;;;;;;345847;28;1064;-56
2023/12/02 00:42:04;;;;;;;3.70;2.10;;;11.80;52.50;;;;;;345879;28;1288;-55
2023/12/02 00:42:15;;;;;;;4.57;2.22;;;11.90;52.30;;;;;;345924;28;1090;-55
2023/12/02 00:42:26;;;;;;;5.13;2.35;;;11.80;52.10;;;;;;345830;28;1065;-56
2023/12/02 00:42:36;;;;;;;5.75;2.53;;;11.80;52.20;;;;;;345905;28;2419;-55
2023/12/02 00:42:47;;;;;;;4.85;2.33;;;11.80;52.70;;;;;;345949;28;1154;-56
2023/12/02 00:42:58;;;;;;;4.53;2.30;;;11.80;52.90;;;;;;345902;28;1123;-55
2023/12/02 00:43:09;;;;;;;5.10;2.25;;;11.80;53.10;;;;;;345999;28;821;-55
2023/12/02 00:43:19;;;;;;;6.50;2.65;;;11.80;52.90;;;;;;345848;28;1243;-57
2023/12/02 00:43:30;;;;;;;5.00;2.30;;;11.80;52.40;;;;;;345934;28;1038;-56
2023/12/02 00:43:41;;;;;;;3.80;2.40;;;11.80;52.30;;;;;;345896;28;1150;-55
2023/12/02 00:43:52;;;;;;;3.43;2.20;;;11.80;52.60;;;;;;345880;28;1091;-55
2023/12/02 00:44:03;;;;;;;4.30;2.42;;;11.80;53.10;;;;;;345831;28;1021;-57
2023/12/02 00:44:13;;;;;;;4.95;2.40;;;11.80;52.90;;;;;;345839;28;1047;-55
2023/12/02 00:44:24;;;;;;;4.72;2.22;;;11.80;52.40;;;;;;345882;28;817;-56
2023/12/02 00:44:35;;;;;;;5.17;2.20;;;11.80;52.10;;;;;;345852;28;1035;-56
2023/12/02 00:44:45;;;;;;;5.57;2.10;;;11.80;52.00;;;;;;345874;28;1562;-55
2023/12/02 00:44:56;;;;;;;6.03;2.20;;;11.70;52.00;;;;;;345947;28;1034;-55
2023/12/02 00:45:07;;;;;;;5.55;2.08;;;11.70;51.90;;;;;;345833;28;1008;-56
2023/12/02 00:45:18;;;;;;;4.70;2.00;;;11.70;51.90;;;;;;345908;28;967;-56
2023/12/02 00:45:29;;;;;;;4.32;2.10;;;11.70;52.00;;;;;;345830;28;1019;-55
2023/12/02 00:45:40;;;;;;;4.78;2.15;;;11.70;52.00;;;;;;345951;28;984;-56
2023/12/02 00:45:51;;;;;;;5.57;2.13;;;11.70;52.10;;;;;;345962;28;1003;-55
2023/12/02 00:46:01;;;;;;;5.32;2.10;;;11.80;52.30;;;;;;345847;28;1294;-55
2023/12/02 00:46:12;;;;;;;5.17;2.23;;;11.70;52.40;;;;;;345865;28;1084;-55
2023/12/02 00:46:23;;;;;;;4.70;2.20;;;11.70;52.50;;;;;;346014;28;813;-55
2023/12/02 00:46:34;;;;;;;4.60;2.13;;;11.80;52.80;;;;;;345801;28;1079;-55
2023/12/02 00:46:45;;;;;;;3.78;1.90;;;11.70;52.80;;;;;;345975;28;1020;-55
2023/12/02 00:46:55;;;;;;;4.05;1.83;;;11.70;52.50;;;;;;345895;28;992;-55
2023/12/02 00:47:06;;;;;;;5.28;1.90;;;11.70;52.40;;;;;;345808;28;3132;-55
2023/12/02 00:47:17;;;;;;;5.87;2.10;;;11.70;52.30;;;;;;345866;28;1496;-56
2023/12/02 00:47:28;;;;;;;5.57;2.22;;;11.70;52.10;;;;;;345910;28;1074;-55
2023/12/02 00:47:38;;;;;;;4.88;2.22;;;11.70;52.00;;;;;;345919;28;980;-56
2023/12/02 00:47:49;;;;;;;4.05;2.13;;;11.70;51.80;;;;;;345944;28;876;-55
2023/12/02 00:48:00;;;;;;;3.25;2.03;;;11.80;51.90;;;;;;345843;28;992;-55
2023/12/02 00:48:11;;;;;;;3.70;1.97;;;11.70;52.20;;;;;;345868;28;1022;-55
2023/12/02 00:48:21;;;;;;;4.72;1.90;;;11.70;52.30;;;;;;345957;28;825;-55
2023/12/02 00:48:32;;;;;;;4.57;2.00;;;11.70;52.50;;;;;;345873;28;1083;-55
2023/12/02 00:48:43;;;;;;;4.80;2.22;;;11.70;52.40;;;;;;345958;28;1516;-55
2023/12/02 00:48:54;;;;;;;3.90;2.13;;;11.70;52.80;;;;;;345843;28;948;-55
2023/12/02 00:49:04;;;;;;;3.70;2.00;;;11.70;52.80;;;;;;345864;28;1102;-55
2023/12/02 00:49:15;;;;;;;3.60;2.20;;;11.80;52.60;;;;;;345929;28;1039;-55
2023/12/02 00:49:26;;;;;;;3.92;2.30;;;11.70;52.60;;;;;;345975;28;1082;-55
2023/12/02 00:49:37;;;;;;;3.92;2.22;;;11.70;52.50;;;;;;345860;28;877;-56
2023/12/02 00:49:47;;;;;;;3.15;2.10;;;11.70;52.40;;;;;;345887;28;841;-54
2023/12/02 00:49:58;;;;;;;5.13;2.43;;;11.70;52.30;;;;;;345950;28;823;-55
2023/12/02 00:50:09;;;;;;;5.35;2.55;;;11.70;52.30;;;;;;345820;28;1182;-56
2023/12/02 00:50:20;;;;;;;5.38;2.58;;;11.70;52.10;;;;;;345917;28;1043;-56
2023/12/02 00:50:30;;;;;;;3.55;2.33;;;11.70;52.10;;;;;;345874;28;1083;-55
2023/12/02 00:50:41;;;;;;;3.72;2.30;;;11.70;52.10;;;;;;345847;28;988;-55
2023/12/02 00:50:52;;;;;;;3.83;2.33;;;11.70;52.20;;;;;;346009;28;1289;-55
2023/12/02 00:51:03;;;;;;;3.78;2.30;;;11.70;52.30;;;;;;345913;28;920;-55
2023/12/02 00:51:14;;;;;;;4.97;2.50;;;11.70;52.70;;;;;;345887;28;904;-55
2023/12/02 00:51:24;;;;;;;5.22;2.50;;;11.70;52.80;;;;;;345941;28;829;-55
2023/12/02 00:51:35;;;;;;;5.63;2.55;;;11.70;52.90;;;;;;345925;28;1087;-56
2023/12/02 00:51:46;;;;;;;4.80;2.42;;;11.70;53.30;;;;;;345850;28;1101;-55
2023/12/02 00:51:57;;;;;;;4.37;2.23;;;11.70;53.60;;;;;;345991;28;857;-54
2023/12/02 00:52:07;;;;;;;3.72;2.20;;;11.70;53.50;;;;;;345959;28;869;-55
2023/12/02 00:52:18;;;;;;;3.97;2.20;;;11.70;53.60;;;;;;345810;28;1977;-55
2023/12/02 00:52:29;;;;;;;3.80;2.15;;;11.70;53.60;;;;;;345833;28;1095;-56
2023/12/02 00:52:40;;;;;;;3.63;2.13;;;11.70;53.50;;;;;;345912;28;1961;-55
2023/12/02 00:52:50;;;;;;;3.70;2.00;;;11.70;53.20;;;;;;345856;28;1013;-55
2023/12/02 00:53:01;;;;;;;5.47;2.20;;;11.70;52.90;;;;;;345999;28;892;-55
2023/12/02 00:53:12;;;;;;;8.70;2.33;;;11.70;52.80;;;;;;345886;28;1091;-54
2023/12/02 00:53:23;;;;;;;10.25;2.28;;;11.70;52.60;;;;;;345834;28;1132;-55
2023/12/02 00:53:34;;;;;;;8.45;2.00;;;11.70;52.40;;;;;;345951;28;972;-55
2023/12/02 00:53:45;;;;;;;8.65;1.90;;;11.70;52.30;;;;;;345884;28;1095;-56
2023/12/02 00:53:55;;;;;;;6.22;2.10;;;11.70;52.20;;;;;;345952;28;1023;-55
2023/12/02 00:54:06;;;;;;;6.00;2.20;;;11.70;52.10;;;;;;345872;28;1036;-56
2023/12/02 00:54:17;;;;;;;7.00;2.60;;;11.70;52.10;;;;;;345849;28;1412;-56
2023/12/02 00:54:28;;;;;;;6.93;2.60;;;11.70;52.30;;;;;;345950;28;1027;-55
2023/12/02 00:54:38;;;;;;;6.82;2.58;;;11.70;52.30;;;;;;345974;28;821;-55
2023/12/02 00:54:49;;;;;;;5.00;2.30;;;11.70;52.60;;;;;;345784;28;1040;-56
2023/12/02 00:55:00;;;;;;;4.80;2.50;;;11.70;52.60;;;;;;345910;28;1020;-55
2023/12/02 00:55:11;;;;;;;4.60;2.80;;;11.70;52.20;;;;;;345961;28;1759;-56
2023/12/02 00:55:22;;;;;;;5.10;2.93;;;11.70;52.30;;;;;;345876;28;1020;-56
2023/12/02 00:55:33;;;;;;;4.60;2.70;;;11.70;52.60;;;;;;345902;28;1092;-56
2023/12/02 00:55:43;;;;;;;4.70;2.83;;;11.60;52.70;;;;;;345967;28;959;-54
2023/12/02 00:55:54;;;;;;;4.60;2.97;;;11.60;52.60;;;;;;345902;28;1047;-54
2023/12/02 00:56:06;;;;;;;4.72;3.03;;;11.60;52.50;;;;;;345963;28;818;-56
2023/12/02 00:56:17;;;;;;;4.70;2.67;;;11.60;52.30;;;;;;345863;28;1003;-55
2023/12/02 00:56:28;;;;;;;4.95;2.63;;;11.60;52.40;;;;;;345917;28;1059;-56
2023/12/02 00:56:38;;;;;;;5.20;2.58;;;11.60;52.30;;;;;;345901;28;1566;-54
2023/12/02 00:56:49;;;;;;;4.68;2.30;;;11.60;52.20;;;;;;345849;28;897;-54
2023/12/02 00:57:00;;;;;;;4.05;2.00;;;11.60;52.20;;;;;;345979;28;1849;-56
2023/12/02 00:57:11;;;;;;;3.35;1.80;;;11.60;52.10;;;;;;345909;28;976;-55
2023/12/02 00:57:22;;;;;;;4.45;1.80;;;11.60;52.20;;;;;;345906;28;1100;-55
2023/12/02 00:57:32;;;;;;;4.40;1.80;;;11.60;52.20;;;;;;345821;28;1132;-55
2023/12/02 00:57:43;;;;;;;5.37;1.93;;;11.60;52.20;;;;;;345916;28;880;-54
2023/12/02 00:57:54;;;;;;;5.30;2.20;;;11.60;52.10;;;;;;345963;28;857;-56
2023/12/02 00:58:05;;;;;;;5.40;2.22;;;11.60;52.00;;;;;;345964;28;971;-55
2023/12/02 00:58:15;;;;;;;6.03;2.40;;;11.60;52.00;;;;;;345844;28;925;-55